createdAt,value
2019-01-30T00:01:07.873Z,-5.79
2019-01-30T00:03:41.040Z,-5.72
2019-01-30T00:06:15.046Z,-5.66
2019-01-30T00:08:50.660Z,-5.66
2019-01-30T00:11:24.590Z,-5.66
2019-01-30T00:13:57.989Z,-5.63
2019-01-30T00:16:31.213Z,-5.46
2019-01-30T00:19:02.494Z,-5.36
2019-01-30T00:21:36.104Z,-5.33
2019-01-30T00:24:07.426Z,-5.27
2019-01-30T00:26:41.263Z,-5.13
2019-01-30T00:29:15.091Z,-5.01
2019-01-30T00:31:49.223Z,-4.98
2019-01-30T00:34:20.538Z,-5.02
2019-01-30T00:36:53.925Z,-5.05
2019-01-30T00:39:25.304Z,-5.08
2019-01-30T00:41:59.370Z,-5.10
2019-01-30T00:44:33.250Z,-4.80
2019-01-30T00:47:15.613Z,-4.30
2019-01-30T00:49:41.406Z,-4.07
2019-01-30T00:52:14.213Z,-3.95
2019-01-30T00:54:45.751Z,-3.95
2019-01-30T00:57:17.055Z,-4.04
2019-01-30T00:59:50.329Z,-4.16
2019-01-30T01:02:23.562Z,-4.26
2019-01-30T01:04:55.204Z,-4.43
2019-01-30T01:07:29.247Z,-4.47
2019-01-30T01:10:07.737Z,-4.49
2019-01-30T01:12:40.361Z,-4.56
2019-01-30T01:15:14.942Z,-4.60
2019-01-30T01:17:46.755Z,-4.63
2019-01-30T01:20:19.407Z,-4.63
2019-01-30T01:22:50.846Z,-4.67
2019-01-30T01:25:23.406Z,-4.67
2019-01-30T01:27:55.455Z,-4.67
2019-01-30T01:30:29.469Z,-4.67
2019-01-30T01:33:00.804Z,-4.64
2019-01-30T01:35:34.241Z,-4.61
2019-01-30T01:38:05.614Z,-4.49
2019-01-30T01:40:39.391Z,-4.49
2019-01-30T01:43:11.483Z,-4.51
2019-01-30T01:45:44.476Z,-4.55
2019-01-30T01:48:18.743Z,-4.52
2019-01-30T01:50:52.346Z,-4.50
2019-01-30T01:53:23.704Z,-4.51
2019-01-30T01:55:57.541Z,-4.48
2019-01-30T01:58:31.557Z,-4.40
2019-01-30T02:01:02.806Z,-4.34
2019-01-30T02:03:36.522Z,-4.28
2019-01-30T02:06:10.492Z,-4.28
2019-01-30T02:08:43.675Z,-4.35
2019-01-30T02:11:14.957Z,-4.39
2019-01-30T02:13:46.298Z,-4.41
2019-01-30T02:16:19.577Z,-4.40
2019-01-30T02:18:55.120Z,-4.48
2019-01-30T02:21:26.477Z,-4.59
2019-01-30T02:23:58.676Z,-4.75
2019-01-30T02:26:32.019Z,-5.01
2019-01-30T02:29:04.744Z,-5.13
2019-01-30T02:31:37.769Z,-5.17
2019-01-30T02:34:09.104Z,-5.19
2019-01-30T02:36:58.111Z,-5.16
2019-01-30T02:39:31.816Z,-5.11
2019-01-30T02:42:05.886Z,-5.10
2019-01-30T02:44:39.667Z,-5.10
2019-01-30T02:47:12.645Z,-5.10
2019-01-30T02:49:45.022Z,-5.19
2019-01-30T02:52:16.343Z,-5.24
2019-01-30T02:54:49.307Z,-5.23
2019-01-30T02:57:20.619Z,-5.21
2019-01-30T02:59:51.907Z,-5.26
2019-01-30T03:02:25.873Z,-5.29
2019-01-30T03:04:59.761Z,-5.24
2019-01-30T03:07:31.217Z,-5.25
2019-01-30T03:10:02.875Z,-5.27
2019-01-30T03:12:35.952Z,-5.22
2019-01-30T03:15:10.906Z,-5.20
2019-01-30T03:17:46.164Z,-5.26
2019-01-30T03:20:20.125Z,-5.20
2019-01-30T03:22:53.895Z,-5.20
2019-01-30T03:25:26.736Z,-5.28
2019-01-30T03:27:59.611Z,-5.34
2019-01-30T03:30:33.072Z,-5.32
2019-01-30T03:33:06.118Z,-5.42
2019-01-30T03:35:38.975Z,-5.58
2019-01-30T03:38:10.422Z,-5.68
2019-01-30T03:40:43.022Z,-5.66
2019-01-30T03:43:17.142Z,-5.61
2019-01-30T03:45:51.235Z,-5.55
2019-01-30T03:48:25.303Z,-5.53
2019-01-30T03:50:59.936Z,-5.56
2019-01-30T03:53:33.143Z,-5.61
2019-01-30T03:56:07.127Z,-5.66
2019-01-30T03:58:40.966Z,-5.75
2019-01-30T04:01:15.064Z,-5.77
2019-01-30T04:03:48.989Z,-5.80
2019-01-30T04:06:20.342Z,-5.80
2019-01-30T04:08:51.704Z,-5.81
2019-01-30T04:11:23.121Z,-5.79
2019-01-30T04:13:55.252Z,-5.79
2019-01-30T04:16:29.267Z,-5.83
2019-01-30T04:19:01.291Z,-5.87
2019-01-30T04:21:34.514Z,-5.88
2019-01-30T04:24:06.668Z,-5.94
2019-01-30T04:26:39.274Z,-5.96
2019-01-30T04:29:14.213Z,-5.97
2019-01-30T04:31:47.215Z,-6.01
2019-01-30T04:34:20.072Z,-6.03
2019-01-30T04:36:54.218Z,-6.07
2019-01-30T04:39:25.816Z,-6.12
2019-01-30T04:41:59.332Z,-6.14
2019-01-30T04:44:31.372Z,-6.16
2019-01-30T04:47:04.234Z,-6.17
2019-01-30T04:49:39.795Z,-6.20
2019-01-30T04:52:12.445Z,-6.22
2019-01-30T04:54:46.234Z,-6.27
2019-01-30T04:57:20.053Z,-6.31
2019-01-30T04:59:54.346Z,-6.38
2019-01-30T05:02:26.301Z,-6.43
2019-01-30T05:04:58.453Z,-6.50
2019-01-30T05:07:32.425Z,-6.58
2019-01-30T05:10:07.673Z,-6.59
2019-01-30T05:12:40.338Z,-6.59
2019-01-30T05:15:17.656Z,-6.60
2019-01-30T05:17:51.344Z,-6.63
2019-01-30T05:20:23.713Z,-6.68
2019-01-30T05:22:56.429Z,-6.69
2019-01-30T05:25:29.331Z,-6.73
2019-01-30T05:28:01.363Z,-6.72
2019-01-30T05:30:37.068Z,-6.74
2019-01-30T05:33:09.616Z,-6.78
2019-01-30T05:35:43.859Z,-6.79
2019-01-30T05:38:19.115Z,-6.82
2019-01-30T05:40:51.647Z,-6.83
2019-01-30T05:43:23.676Z,-6.81
2019-01-30T05:45:56.593Z,-6.89
2019-01-30T05:48:30.485Z,-6.97
2019-01-30T05:51:04.706Z,-6.95
2019-01-30T05:53:37.183Z,-6.97
2019-01-30T05:56:08.636Z,-7.00
2019-01-30T05:58:40.020Z,-7.04
2019-01-30T06:01:11.432Z,-7.06
2019-01-30T06:03:44.694Z,-7.06
2019-01-30T06:06:18.604Z,-7.09
2019-01-30T06:08:51.257Z,-7.16
2019-01-30T06:11:23.782Z,-7.15
2019-01-30T06:13:57.757Z,-7.17
2019-01-30T06:16:29.637Z,-7.21
2019-01-30T06:19:02.388Z,-7.18
2019-01-30T06:21:36.752Z,-7.16
2019-01-30T06:24:09.861Z,-7.17
2019-01-30T06:26:43.716Z,-7.41
2019-01-30T06:29:17.733Z,-7.18
2019-01-30T06:31:51.856Z,-7.21
2019-01-30T06:34:23.293Z,-7.22
2019-01-30T06:36:58.344Z,-7.33
2019-01-30T06:39:30.821Z,-7.41
2019-01-30T06:42:04.899Z,-7.36
2019-01-30T06:44:38.916Z,-7.30
2019-01-30T06:47:14.271Z,-7.28
2019-01-30T06:49:47.681Z,-7.29
2019-01-30T06:52:20.043Z,-7.23
2019-01-30T06:54:56.618Z,-7.21
2019-01-30T06:57:30.275Z,-7.13
2019-01-30T07:00:03.581Z,-7.11
2019-01-30T07:02:36.795Z,-7.01
2019-01-30T07:05:10.170Z,-6.95
2019-01-30T07:07:43.897Z,-6.81
2019-01-30T07:10:23.657Z,-6.62
2019-01-30T07:12:57.669Z,-6.23
2019-01-30T07:15:33.840Z,-5.68
2019-01-30T07:18:05.996Z,-5.31
2019-01-30T07:20:41.458Z,-5.17
2019-01-30T07:23:14.011Z,-4.88
2019-01-30T07:25:48.146Z,-4.85
2019-01-30T07:28:20.230Z,-5.06
2019-01-30T07:30:53.013Z,-5.15
2019-01-30T07:33:27.068Z,-5.18
2019-01-30T07:36:01.063Z,-5.17
2019-01-30T07:38:34.941Z,-5.30
2019-01-30T07:41:09.538Z,-5.28
2019-01-30T07:43:43.203Z,-5.23
2019-01-30T07:46:17.182Z,-5.31
2019-01-30T07:48:52.515Z,-5.29
2019-01-30T07:51:25.002Z,-5.26
2019-01-30T07:53:59.613Z,-5.22
2019-01-30T07:56:33.212Z,-5.12
2019-01-30T07:59:07.076Z,-5.19
2019-01-30T08:01:41.693Z,-5.23
2019-01-30T08:04:13.095Z,-5.11
2019-01-30T08:06:45.406Z,-5.06
2019-01-30T08:09:19.348Z,-4.93
2019-01-30T08:11:53.312Z,-4.87
2019-01-30T08:14:26.088Z,-4.77
2019-01-30T08:16:59.371Z,-4.65
2019-01-30T08:19:32.246Z,-4.48
2019-01-30T08:22:03.604Z,-4.28
2019-01-30T08:24:37.203Z,-4.25
2019-01-30T08:27:08.676Z,-4.01
2019-01-30T08:29:42.261Z,-4.01
2019-01-30T08:32:16.268Z,-4.03
2019-01-30T08:34:49.145Z,-4.00
2019-01-30T08:37:20.576Z,-3.82
2019-01-30T08:39:52.126Z,-3.66
2019-01-30T08:42:25.937Z,-3.50
2019-01-30T08:44:57.264Z,-3.44
2019-01-30T08:47:31.367Z,-3.31
2019-01-30T08:50:04.973Z,-3.02
2019-01-30T08:52:38.165Z,-2.77
2019-01-30T08:55:10.077Z,-2.58
2019-01-30T08:57:43.517Z,-2.51
2019-01-30T09:00:19.176Z,-2.42
2019-01-30T09:02:51.430Z,-2.32
2019-01-30T09:05:23.655Z,-2.18
2019-01-30T09:07:56.654Z,-1.96
2019-01-30T09:10:30.564Z,-1.88
2019-01-30T09:13:05.425Z,-1.73
2019-01-30T09:15:38.344Z,-1.54
2019-01-30T09:18:09.726Z,-1.11
2019-01-30T09:20:43.490Z,-1.11
2019-01-30T09:23:17.575Z,-0.96
2019-01-30T09:25:51.459Z,-0.66
2019-01-30T09:28:23.616Z,-0.59
2019-01-30T09:30:55.479Z,-0.55
2019-01-30T09:33:31.038Z,-0.49
2019-01-30T09:36:03.474Z,-0.26
2019-01-30T09:38:37.747Z,-0.12
2019-01-30T09:41:11.610Z,-0.08
2019-01-30T09:43:43.654Z,0.04
2019-01-30T09:46:16.585Z,0.15
2019-01-30T09:48:50.508Z,0.25
2019-01-30T09:51:21.896Z,0.39
2019-01-30T09:53:53.128Z,0.52
2019-01-30T09:56:26.728Z,0.59
2019-01-30T09:59:00.894Z,0.78
2019-01-30T10:01:34.775Z,0.95
2019-01-30T10:04:10.439Z,1.12
2019-01-30T10:06:43.650Z,1.17
2019-01-30T10:09:17.608Z,1.15
2019-01-30T10:11:50.705Z,1.36
2019-01-30T10:14:23.675Z,1.37
2019-01-30T10:16:55.740Z,1.52
2019-01-30T10:19:27.744Z,1.41
2019-01-30T10:22:00.807Z,1.32
2019-01-30T10:24:32.762Z,1.29
2019-01-30T10:27:05.606Z,1.18
2019-01-30T10:29:37.025Z,1.19
2019-01-30T10:32:10.670Z,1.19
2019-01-30T10:34:44.723Z,1.35
2019-01-30T10:37:16.113Z,1.35
2019-01-30T10:39:49.847Z,1.42
2019-01-30T10:42:21.097Z,1.45
2019-01-30T10:44:54.961Z,1.60
2019-01-30T10:47:28.218Z,1.72
2019-01-30T10:49:59.688Z,1.73
2019-01-30T10:52:33.772Z,1.78
2019-01-30T10:55:10.437Z,1.77
2019-01-30T10:57:45.908Z,1.90
2019-01-30T11:00:20.292Z,2.08
2019-01-30T11:02:51.853Z,2.19
2019-01-30T11:05:24.175Z,2.29
2019-01-30T11:07:57.070Z,2.32
2019-01-30T11:10:30.511Z,2.40
2019-01-30T11:13:01.964Z,2.52
2019-01-30T11:15:35.921Z,2.54
2019-01-30T11:18:15.405Z,2.64
2019-01-30T11:20:46.995Z,2.75
2019-01-30T11:23:20.416Z,2.59
2019-01-30T11:25:51.909Z,2.76
2019-01-30T11:28:24.091Z,2.59
2019-01-30T11:30:56.963Z,2.62
2019-01-30T11:33:29.950Z,2.95
2019-01-30T11:36:01.645Z,2.97
2019-01-30T11:38:36.441Z,2.89
2019-01-30T11:41:08.234Z,2.94
2019-01-30T11:43:40.956Z,3.08
2019-01-30T11:46:12.401Z,3.02
2019-01-30T11:48:56.022Z,3.01
2019-01-30T11:51:19.092Z,3.09
2019-01-30T11:53:53.127Z,3.06
2019-01-30T11:56:25.073Z,3.06
2019-01-30T11:58:58.377Z,3.07
2019-01-30T12:01:32.068Z,2.85
2019-01-30T12:04:03.317Z,2.86
2019-01-30T12:06:37.126Z,2.81
2019-01-30T12:09:12.917Z,2.90
2019-01-30T12:11:45.088Z,2.20
2019-01-30T12:14:20.799Z,2.90
2019-01-30T12:16:53.270Z,2.97
2019-01-30T12:19:27.339Z,3.00
2019-01-30T12:22:00.170Z,3.07
2019-01-30T12:24:33.177Z,3.05
2019-01-30T12:27:05.256Z,3.09
2019-01-30T12:29:36.584Z,3.19
2019-01-30T12:32:10.285Z,3.19
2019-01-30T12:34:44.232Z,3.17
2019-01-30T12:37:16.249Z,3.18
2019-01-30T12:39:49.232Z,3.19
2019-01-30T12:42:20.661Z,3.33
2019-01-30T12:44:54.406Z,3.42
2019-01-30T12:47:27.405Z,3.35
2019-01-30T12:49:58.934Z,3.40
2019-01-30T12:52:31.943Z,3.46
2019-01-30T12:55:03.428Z,3.60
2019-01-30T12:57:37.377Z,3.66
2019-01-30T13:00:16.694Z,3.70
2019-01-30T13:02:48.497Z,3.52
2019-01-30T13:05:21.640Z,3.56
2019-01-30T13:07:53.367Z,3.69
2019-01-30T13:10:27.556Z,3.61
2019-01-30T13:13:02.260Z,3.61
2019-01-30T13:15:35.527Z,3.54
2019-01-30T13:18:17.962Z,3.60
2019-01-30T13:20:44.604Z,3.67
2019-01-30T13:23:18.265Z,3.72
2019-01-30T13:25:50.579Z,3.71
2019-01-30T13:28:24.488Z,3.72
2019-01-30T13:30:58.599Z,3.67
2019-01-30T13:33:29.917Z,3.60
2019-01-30T13:36:01.190Z,3.54
2019-01-30T13:38:34.586Z,3.52
2019-01-30T13:41:10.266Z,3.47
2019-01-30T13:43:42.621Z,3.47
2019-01-30T13:46:13.870Z,3.51
2019-01-30T13:48:45.511Z,3.47
2019-01-30T13:51:18.712Z,3.50
2019-01-30T13:53:52.421Z,3.50
2019-01-30T13:56:23.685Z,3.52
2019-01-30T13:58:58.352Z,3.40
2019-01-30T14:01:30.545Z,3.41
2019-01-30T14:04:01.859Z,3.39
2019-01-30T14:06:35.711Z,3.36
2019-01-30T14:09:10.480Z,3.40
2019-01-30T14:11:43.656Z,3.51
2019-01-30T14:14:15.193Z,3.55
2019-01-30T14:16:46.452Z,3.57
2019-01-30T14:19:19.735Z,3.50
2019-01-30T14:21:53.731Z,3.54
2019-01-30T14:24:26.825Z,3.42
2019-01-30T14:26:58.824Z,3.46
2019-01-30T14:29:32.897Z,3.33
2019-01-30T14:32:06.937Z,3.31
2019-01-30T14:34:40.714Z,3.28
2019-01-30T14:37:14.848Z,3.19
2019-01-30T14:39:51.919Z,3.11
2019-01-30T14:42:23.909Z,3.06
2019-01-30T14:44:56.585Z,2.96
2019-01-30T14:47:27.825Z,2.94
2019-01-30T14:50:00.814Z,2.90
2019-01-30T14:52:34.817Z,2.81
2019-01-30T14:55:09.868Z,2.76
2019-01-30T14:57:42.799Z,2.73
2019-01-30T15:00:24.207Z,2.68
2019-01-30T15:02:56.537Z,2.65
2019-01-30T15:05:30.549Z,2.63
2019-01-30T15:08:01.903Z,2.60
2019-01-30T15:10:35.828Z,2.59
2019-01-30T15:13:10.138Z,2.55
2019-01-30T15:15:44.420Z,2.47
2019-01-30T15:18:17.097Z,2.40
2019-01-30T15:20:51.019Z,2.38
2019-01-30T15:23:24.080Z,2.29
2019-01-30T15:25:55.940Z,2.22
2019-01-30T15:28:27.278Z,2.15
2019-01-30T15:30:58.616Z,2.06
2019-01-30T15:33:33.199Z,2.00
2019-01-30T15:36:24.120Z,1.92
2019-01-30T15:39:13.118Z,1.83
2019-01-30T15:41:47.150Z,1.75
2019-01-30T15:44:18.415Z,1.65
2019-01-30T15:46:52.085Z,1.56
2019-01-30T15:49:24.033Z,1.44
2019-01-30T15:51:56.130Z,1.35
2019-01-30T15:54:27.392Z,1.27
2019-01-30T15:57:01.258Z,1.23
2019-01-30T15:59:35.067Z,1.17
2019-01-30T16:02:27.257Z,1.14
2019-01-30T16:05:01.113Z,1.05
2019-01-30T16:07:35.215Z,0.93
2019-01-30T16:10:11.265Z,0.77
2019-01-30T16:12:44.186Z,0.65
2019-01-30T16:15:20.947Z,0.48
2019-01-30T16:17:54.348Z,0.38
2019-01-30T16:20:27.407Z,0.33
2019-01-30T16:23:01.034Z,0.26
2019-01-30T16:25:33.857Z,0.24
2019-01-30T16:28:07.478Z,0.16
2019-01-30T16:30:42.389Z,0.08
2019-01-30T16:33:15.352Z,0.02
2019-01-30T16:35:56.104Z,-0.07
2019-01-30T16:38:23.467Z,-0.15
2019-01-30T16:40:54.821Z,-0.24
2019-01-30T16:43:28.308Z,-0.28
2019-01-30T16:46:02.337Z,-0.33
2019-01-30T16:48:33.705Z,-0.37
2019-01-30T16:51:09.398Z,-0.43
2019-01-30T16:53:41.492Z,-0.49
2019-01-30T16:56:15.584Z,-0.53
2019-01-30T16:58:46.858Z,-0.58
2019-01-30T17:01:20.435Z,-0.67
2019-01-30T17:03:56.039Z,-0.76
2019-01-30T17:06:27.342Z,-0.88
2019-01-30T17:08:59.578Z,-0.99
2019-01-30T17:11:33.551Z,-1.06
2019-01-30T17:14:09.096Z,-1.11
2019-01-30T17:16:42.499Z,-1.14
2019-01-30T17:19:15.594Z,-1.17
2019-01-30T17:21:51.285Z,-1.25
2019-01-30T17:24:24.614Z,-1.30
2019-01-30T17:26:57.465Z,-1.30
2019-01-30T17:29:28.774Z,-1.30
2019-01-30T17:32:05.005Z,-1.33
2019-01-30T17:34:37.121Z,-1.40
2019-01-30T17:37:09.935Z,-1.44
2019-01-30T17:39:41.702Z,-1.43
2019-01-30T17:42:14.875Z,-1.45
2019-01-30T17:44:50.386Z,-1.50
2019-01-30T17:47:21.680Z,-1.56
2019-01-30T17:49:58.817Z,-1.58
2019-01-30T17:52:30.813Z,-1.64
2019-01-30T17:55:05.386Z,-1.68
2019-01-30T17:57:38.783Z,-1.74
2019-01-30T18:00:19.560Z,-1.81
2019-01-30T18:02:52.828Z,-1.85
2019-01-30T18:05:24.851Z,-1.86
2019-01-30T18:07:57.888Z,-1.81
2019-01-30T18:10:29.256Z,-1.77
2019-01-30T18:13:03.686Z,-1.80
2019-01-30T18:15:37.219Z,-1.78
2019-01-30T18:18:11.778Z,-1.84
2019-01-30T18:20:44.889Z,-1.89
2019-01-30T18:23:19.010Z,-1.88
2019-01-30T18:25:50.331Z,-1.87
2019-01-30T18:28:21.635Z,-1.93
2019-01-30T18:30:54.923Z,-1.93
2019-01-30T18:33:29.014Z,-1.93
2019-01-30T18:36:05.239Z,-1.92
2019-01-30T18:38:38.958Z,-1.96
2019-01-30T18:41:11.123Z,-2.03
2019-01-30T18:43:45.530Z,-2.05
2019-01-30T18:46:18.946Z,-2.03
2019-01-30T18:48:53.050Z,-2.03
2019-01-30T18:51:25.239Z,-2.06
2019-01-30T18:53:58.024Z,-2.09
2019-01-30T18:56:30.174Z,-2.15
2019-01-30T18:59:03.059Z,-2.15
2019-01-30T19:01:37.145Z,-2.17
2019-01-30T19:04:11.154Z,-2.22
2019-01-30T19:06:52.034Z,-2.25
2019-01-30T19:09:19.082Z,-2.30
2019-01-30T19:11:53.203Z,-2.31
2019-01-30T19:14:27.034Z,-2.28
2019-01-30T19:17:01.154Z,-2.26
2019-01-30T19:19:32.531Z,-2.23
2019-01-30T19:22:10.087Z,-2.19
2019-01-30T19:24:44.627Z,-2.14
2019-01-30T19:27:17.384Z,-2.09
2019-01-30T19:29:50.289Z,-2.11
2019-01-30T19:32:21.763Z,-2.22
2019-01-30T19:34:55.306Z,-2.22
2019-01-30T19:37:27.319Z,-2.16
2019-01-30T19:40:00.768Z,-2.12
2019-01-30T19:42:34.676Z,-2.07
2019-01-30T19:45:10.985Z,-2.04
2019-01-30T19:47:42.369Z,-2.02
2019-01-30T19:50:18.859Z,-1.99
2019-01-30T19:52:50.200Z,-2.00
2019-01-30T19:55:21.563Z,-2.01
2019-01-30T19:57:53.511Z,-2.02
2019-01-30T20:00:32.265Z,-2.02
2019-01-30T20:03:08.090Z,-2.13
2019-01-30T20:05:40.488Z,-2.15
2019-01-30T20:08:14.500Z,-2.14
2019-01-30T20:10:47.705Z,-2.14
2019-01-30T20:13:19.588Z,-2.13
2019-01-30T20:15:52.669Z,-2.10
2019-01-30T20:18:24.765Z,-2.06
2019-01-30T20:20:58.527Z,-2.05
2019-01-30T20:23:30.697Z,-2.11
2019-01-30T20:26:03.543Z,-2.16
2019-01-30T20:28:37.554Z,-2.13
2019-01-30T20:31:09.829Z,-2.10
2019-01-30T20:33:42.383Z,-2.07
2019-01-30T20:36:16.716Z,-2.01
2019-01-30T20:38:50.467Z,-1.96
2019-01-30T20:41:22.854Z,-2.02
2019-01-30T20:43:54.621Z,-2.03
2019-01-30T20:46:27.618Z,-2.05
2019-01-30T20:48:59.878Z,-1.98
2019-01-30T20:51:31.305Z,-1.93
2019-01-30T20:54:02.704Z,-1.88
2019-01-30T20:56:37.026Z,-1.84
2019-01-30T20:59:10.759Z,-1.83
2019-01-30T21:01:44.633Z,-1.84
2019-01-30T21:04:18.679Z,-1.82
2019-01-30T21:06:51.536Z,-1.78
2019-01-30T21:09:23.248Z,-1.74
2019-01-30T21:11:56.545Z,-1.71
2019-01-30T21:14:28.778Z,-1.68
2019-01-30T21:17:01.807Z,-1.66
2019-01-30T21:19:35.862Z,-1.64
2019-01-30T21:22:09.587Z,-1.62
2019-01-30T21:24:42.474Z,-1.61
2019-01-30T21:27:14.649Z,-1.59
2019-01-30T21:29:50.252Z,-1.58
2019-01-30T21:32:21.711Z,-1.58
2019-01-30T21:34:53.576Z,-1.59
2019-01-30T21:37:27.605Z,-1.60
2019-01-30T21:40:00.586Z,-1.57
2019-01-30T21:42:32.317Z,-1.54
2019-01-30T21:45:08.024Z,-1.52
2019-01-30T21:47:39.837Z,-1.48
2019-01-30T21:50:14.250Z,-1.46
2019-01-30T21:52:47.656Z,-1.41
2019-01-30T21:55:22.994Z,-1.38
2019-01-30T21:57:57.359Z,-1.37
2019-01-30T22:00:30.389Z,-1.32
2019-01-30T22:03:03.707Z,-1.28
2019-01-30T22:05:37.825Z,-1.28
2019-01-30T22:08:10.827Z,-1.28
2019-01-30T22:10:43.770Z,-1.29
2019-01-30T22:13:15.819Z,-1.31
2019-01-30T22:15:47.297Z,-1.30
2019-01-30T22:18:20.899Z,-1.32
2019-01-30T22:20:54.947Z,-1.31
2019-01-30T22:23:27.873Z,-1.32
2019-01-30T22:25:59.907Z,-1.30
2019-01-30T22:28:33.901Z,-1.29
2019-01-30T22:31:09.320Z,-1.27
2019-01-30T22:33:41.857Z,-1.26
2019-01-30T22:36:15.878Z,-1.25
2019-01-30T22:38:49.799Z,-1.24
2019-01-30T22:41:21.538Z,-1.24
2019-01-30T22:43:53.821Z,-1.23
2019-01-30T22:46:27.964Z,-1.23
2019-01-30T22:48:59.568Z,-1.22
2019-01-30T22:51:33.161Z,-1.24
2019-01-30T22:54:07.046Z,-1.22
2019-01-30T22:56:40.017Z,-1.21
2019-01-30T22:59:12.338Z,-1.20
2019-01-30T23:01:55.749Z,-1.23
2019-01-30T23:04:49.832Z,-1.26
2019-01-30T23:07:33.581Z,-1.27
2019-01-30T23:10:43.025Z,-1.25
2019-01-30T23:13:33.787Z,-1.28
2019-01-30T23:17:17.787Z,-1.30
2019-01-30T23:19:55.425Z,-1.32
2019-01-30T23:23:25.982Z,-1.33
2019-01-30T23:26:26.627Z,-1.35
2019-01-30T23:29:43.807Z,-1.37
2019-01-30T23:33:07.343Z,-1.36
2019-01-30T23:36:29.095Z,-1.37
2019-01-30T23:39:35.810Z,-1.40
2019-01-30T23:42:44.524Z,-1.44
2019-01-30T23:45:39.313Z,-1.46
2019-01-30T23:49:05.514Z,-1.43
2019-01-30T23:52:06.276Z,-1.41
2019-01-30T23:55:22.361Z,-1.37
2019-01-30T23:58:15.975Z,-1.36
